sensor_id;sensor_type;location;lat;lon;timestamp;P1;durP1;ratioP1;P2;durP2;ratioP2
64986;SDS011;67903;52.108;9.358;2023-12-20T00:01:14;5.22;;;4.72;;
64986;SDS011;67903;52.108;9.358;2023-12-20T00:04:00;6.15;;;4.78;;
64986;SDS011;67903;52.108;9.358;2023-12-20T00:06:46;4.88;;;4.38;;
64986;SDS011;67903;52.108;9.358;2023-12-20T00:09:32;5.97;;;5.13;;
64986;SDS011;67903;52.108;9.358;2023-12-20T00:12:17;5.20;;;4.70;;
64986;SDS011;67903;52.108;9.358;2023-12-20T00:15:04;7.30;;;5.32;;
64986;SDS011;67903;52.108;9.358;2023-12-20T00:17:50;6.35;;;5.53;;
64986;SDS011;67903;52.108;9.358;2023-12-20T00:20:35;6.85;;;5.95;;
64986;SDS011;67903;52.108;9.358;2023-12-20T00:23:21;7.50;;;5.90;;
64986;SDS011;67903;52.108;9.358;2023-12-20T00:26:08;7.60;;;5.70;;
64986;SDS011;67903;52.108;9.358;2023-12-20T00:28:54;7.38;;;5.72;;
64986;SDS011;67903;52.108;9.358;2023-12-20T00:31:39;8.15;;;5.50;;
64986;SDS011;67903;52.108;9.358;2023-12-20T00:34:25;7.20;;;6.22;;
64986;SDS011;67903;52.108;9.358;2023-12-20T00:37:11;7.45;;;6.32;;
64986;SDS011;67903;52.108;9.358;2023-12-20T00:39:56;7.93;;;6.13;;
64986;SDS011;67903;52.108;9.358;2023-12-20T00:42:42;8.80;;;7.13;;
64986;SDS011;67903;52.108;9.358;2023-12-20T00:45:29;7.78;;;6.50;;
64986;SDS011;67903;52.108;9.358;2023-12-20T00:48:14;7.97;;;6.18;;
64986;SDS011;67903;52.108;9.358;2023-12-20T00:51:00;8.07;;;6.05;;
64986;SDS011;67903;52.108;9.358;2023-12-20T00:53:45;11.25;;;6.72;;
64986;SDS011;67903;52.108;9.358;2023-12-20T00:56:35;6.82;;;5.38;;
64986;SDS011;67903;52.108;9.358;2023-12-20T00:59:20;10.05;;;6.40;;
64986;SDS011;67903;52.108;9.358;2023-12-20T01:02:06;9.23;;;6.28;;
64986;SDS011;67903;52.108;9.358;2023-12-20T01:04:52;8.07;;;5.47;;
64986;SDS011;67903;52.108;9.358;2023-12-20T01:07:37;8.57;;;4.53;;
64986;SDS011;67903;52.108;9.358;2023-12-20T01:10:23;5.93;;;3.95;;
64986;SDS011;67903;52.108;9.358;2023-12-20T01:13:08;6.65;;;3.40;;
64986;SDS011;67903;52.108;9.358;2023-12-20T01:15:54;5.85;;;3.58;;
64986;SDS011;67903;52.108;9.358;2023-12-20T01:18:40;4.45;;;3.10;;
64986;SDS011;67903;52.108;9.358;2023-12-20T01:21:26;5.20;;;2.97;;
64986;SDS011;67903;52.108;9.358;2023-12-20T01:24:11;5.75;;;2.75;;
64986;SDS011;67903;52.108;9.358;2023-12-20T01:26:57;3.55;;;1.92;;
64986;SDS011;67903;52.108;9.358;2023-12-20T01:29:42;5.93;;;2.20;;
64986;SDS011;67903;52.108;9.358;2023-12-20T01:32:28;6.85;;;2.60;;
64986;SDS011;67903;52.108;9.358;2023-12-20T01:35:13;5.13;;;1.95;;
64986;SDS011;67903;52.108;9.358;2023-12-20T01:37:59;5.68;;;2.50;;
64986;SDS011;67903;52.108;9.358;2023-12-20T01:40:45;6.82;;;2.50;;
64986;SDS011;67903;52.108;9.358;2023-12-20T01:43:31;4.22;;;2.45;;
64986;SDS011;67903;52.108;9.358;2023-12-20T01:46:31;4.35;;;2.45;;
64986;SDS011;67903;52.108;9.358;2023-12-20T01:49:17;5.50;;;2.17;;
64986;SDS011;67903;52.108;9.358;2023-12-20T01:52:02;5.32;;;2.45;;
64986;SDS011;67903;52.108;9.358;2023-12-20T01:54:48;6.88;;;2.58;;
64986;SDS011;67903;52.108;9.358;2023-12-20T01:57:34;6.75;;;2.20;;
64986;SDS011;67903;52.108;9.358;2023-12-20T02:00:19;6.30;;;2.90;;
64986;SDS011;67903;52.108;9.358;2023-12-20T02:03:08;3.42;;;2.20;;
64986;SDS011;67903;52.108;9.358;2023-12-20T02:05:54;9.40;;;2.95;;
64986;SDS011;67903;52.108;9.358;2023-12-20T02:08:39;3.53;;;2.25;;
64986;SDS011;67903;52.108;9.358;2023-12-20T02:11:25;6.70;;;2.47;;
64986;SDS011;67903;52.108;9.358;2023-12-20T02:14:11;4.88;;;2.28;;
64986;SDS011;67903;52.108;9.358;2023-12-20T02:16:56;3.47;;;2.08;;
64986;SDS011;67903;52.108;9.358;2023-12-20T02:19:43;3.90;;;1.70;;
64986;SDS011;67903;52.108;9.358;2023-12-20T02:22:29;7.15;;;2.10;;
64986;SDS011;67903;52.108;9.358;2023-12-20T02:25:14;4.13;;;1.80;;
64986;SDS011;67903;52.108;9.358;2023-12-20T02:28:00;5.43;;;2.17;;
64986;SDS011;67903;52.108;9.358;2023-12-20T02:30:46;4.30;;;1.80;;
64986;SDS011;67903;52.108;9.358;2023-12-20T02:33:31;4.10;;;2.08;;
64986;SDS011;67903;52.108;9.358;2023-12-20T02:36:17;4.65;;;2.33;;
64986;SDS011;67903;52.108;9.358;2023-12-20T02:39:02;3.53;;;1.88;;
64986;SDS011;67903;52.108;9.358;2023-12-20T02:41:48;5.50;;;1.90;;
64986;SDS011;67903;52.108;9.358;2023-12-20T02:44:34;3.72;;;1.77;;
64986;SDS011;67903;52.108;9.358;2023-12-20T02:47:20;4.32;;;2.28;;
64986;SDS011;67903;52.108;9.358;2023-12-20T02:50:05;3.67;;;1.80;;
64986;SDS011;67903;52.108;9.358;2023-12-20T02:52:51;5.88;;;1.77;;
64986;SDS011;67903;52.108;9.358;2023-12-20T02:55:37;4.50;;;1.33;;
64986;SDS011;67903;52.108;9.358;2023-12-20T02:58:22;5.63;;;1.50;;
64986;SDS011;67903;52.108;9.358;2023-12-20T03:01:08;4.68;;;1.75;;
64986;SDS011;67903;52.108;9.358;2023-12-20T03:03:53;4.38;;;1.35;;
64986;SDS011;67903;52.108;9.358;2023-12-20T03:06:39;4.93;;;1.40;;
64986;SDS011;67903;52.108;9.358;2023-12-20T03:09:24;8.13;;;1.75;;
64986;SDS011;67903;52.108;9.358;2023-12-20T03:12:10;5.13;;;1.70;;
64986;SDS011;67903;52.108;9.358;2023-12-20T03:14:55;4.57;;;1.63;;
64986;SDS011;67903;52.108;9.358;2023-12-20T03:17:41;5.47;;;1.58;;
64986;SDS011;67903;52.108;9.358;2023-12-20T03:20:27;3.25;;;1.65;;
64986;SDS011;67903;52.108;9.358;2023-12-20T03:23:12;5.43;;;1.70;;
64986;SDS011;67903;52.108;9.358;2023-12-20T03:25:58;10.18;;;1.98;;
64986;SDS011;67903;52.108;9.358;2023-12-20T03:28:44;4.72;;;1.90;;
64986;SDS011;67903;52.108;9.358;2023-12-20T03:31:30;6.43;;;1.83;;
64986;SDS011;67903;52.108;9.358;2023-12-20T03:34:15;4.15;;;1.50;;
64986;SDS011;67903;52.108;9.358;2023-12-20T03:37:01;5.47;;;2.10;;
64986;SDS011;67903;52.108;9.358;2023-12-20T03:39:46;5.82;;;1.80;;
64986;SDS011;67903;52.108;9.358;2023-12-20T03:42:32;4.80;;;1.60;;
64986;SDS011;67903;52.108;9.358;2023-12-20T03:45:18;3.80;;;1.80;;
64986;SDS011;67903;52.108;9.358;2023-12-20T03:48:03;6.53;;;2.30;;
64986;SDS011;67903;52.108;9.358;2023-12-20T03:50:49;9.63;;;2.15;;
64986;SDS011;67903;52.108;9.358;2023-12-20T03:53:35;5.68;;;2.15;;
64986;SDS011;67903;52.108;9.358;2023-12-20T03:56:20;7.53;;;2.28;;
64986;SDS011;67903;52.108;9.358;2023-12-20T03:59:06;5.78;;;2.20;;
64986;SDS011;67903;52.108;9.358;2023-12-20T04:01:51;5.10;;;2.30;;
64986;SDS011;67903;52.108;9.358;2023-12-20T04:04:37;5.97;;;2.22;;
64986;SDS011;67903;52.108;9.358;2023-12-20T04:07:22;7.20;;;2.40;;
64986;SDS011;67903;52.108;9.358;2023-12-20T04:10:08;6.10;;;2.50;;
64986;SDS011;67903;52.108;9.358;2023-12-20T04:12:54;6.72;;;2.45;;
64986;SDS011;67903;52.108;9.358;2023-12-20T04:15:39;5.43;;;2.28;;
64986;SDS011;67903;52.108;9.358;2023-12-20T04:18:25;3.45;;;2.17;;
64986;SDS011;67903;52.108;9.358;2023-12-20T04:21:10;6.40;;;2.53;;
64986;SDS011;67903;52.108;9.358;2023-12-20T04:23:56;8.68;;;2.63;;
64986;SDS011;67903;52.108;9.358;2023-12-20T04:26:42;4.93;;;2.38;;
64986;SDS011;67903;52.108;9.358;2023-12-20T04:29:27;5.38;;;2.88;;
64986;SDS011;67903;52.108;9.358;2023-12-20T04:32:13;5.88;;;2.42;;
64986;SDS011;67903;52.108;9.358;2023-12-20T04:34:58;5.43;;;2.20;;
64986;SDS011;67903;52.108;9.358;2023-12-20T04:37:44;6.95;;;2.45;;
64986;SDS011;67903;52.108;9.358;2023-12-20T04:40:30;8.68;;;3.20;;
64986;SDS011;67903;52.108;9.358;2023-12-20T04:43:15;7.85;;;2.50;;
64986;SDS011;67903;52.108;9.358;2023-12-20T04:46:01;8.90;;;2.88;;
64986;SDS011;67903;52.108;9.358;2023-12-20T04:48:46;6.45;;;2.55;;
64986;SDS011;67903;52.108;9.358;2023-12-20T04:51:35;7.82;;;2.90;;
64986;SDS011;67903;52.108;9.358;2023-12-20T04:54:21;10.60;;;2.70;;
64986;SDS011;67903;52.108;9.358;2023-12-20T04:57:07;7.15;;;3.08;;
64986;SDS011;67903;52.108;9.358;2023-12-20T04:59:52;10.23;;;3.22;;
64986;SDS011;67903;52.108;9.358;2023-12-20T05:02:38;12.23;;;2.83;;
64986;SDS011;67903;52.108;9.358;2023-12-20T05:05:23;7.95;;;3.10;;
64986;SDS011;67903;52.108;9.358;2023-12-20T05:08:09;9.98;;;3.08;;
64986;SDS011;67903;52.108;9.358;2023-12-20T05:10:54;6.60;;;3.00;;
64986;SDS011;67903;52.108;9.358;2023-12-20T05:13:40;7.63;;;2.47;;
64986;SDS011;67903;52.108;9.358;2023-12-20T05:16:33;6.68;;;2.50;;
64986;SDS011;67903;52.108;9.358;2023-12-20T05:19:19;8.65;;;3.65;;
64986;SDS011;67903;52.108;9.358;2023-12-20T05:22:04;11.77;;;3.60;;
64986;SDS011;67903;52.108;9.358;2023-12-20T05:24:50;8.88;;;3.13;;
64986;SDS011;67903;52.108;9.358;2023-12-20T05:27:35;11.23;;;3.47;;
64986;SDS011;67903;52.108;9.358;2023-12-20T05:30:21;7.40;;;3.60;;
64986;SDS011;67903;52.108;9.358;2023-12-20T05:33:07;3.97;;;2.53;;
64986;SDS011;67903;52.108;9.358;2023-12-20T05:35:52;9.65;;;3.50;;
64986;SDS011;67903;52.108;9.358;2023-12-20T05:38:38;8.88;;;3.28;;
64986;SDS011;67903;52.108;9.358;2023-12-20T05:41:24;12.15;;;3.30;;
64986;SDS011;67903;52.108;9.358;2023-12-20T05:44:09;11.02;;;3.45;;
64986;SDS011;67903;52.108;9.358;2023-12-20T05:46:55;7.50;;;3.30;;
64986;SDS011;67903;52.108;9.358;2023-12-20T05:49:41;12.73;;;3.72;;
64986;SDS011;67903;52.108;9.358;2023-12-20T05:52:27;8.68;;;3.55;;
64986;SDS011;67903;52.108;9.358;2023-12-20T05:55:12;10.30;;;3.53;;
64986;SDS011;67903;52.108;9.358;2023-12-20T05:57:58;7.40;;;3.53;;
64986;SDS011;67903;52.108;9.358;2023-12-20T06:00:45;9.98;;;3.53;;
64986;SDS011;67903;52.108;9.358;2023-12-20T06:03:31;10.13;;;3.70;;
64986;SDS011;67903;52.108;9.358;2023-12-20T06:06:17;9.05;;;3.03;;
64986;SDS011;67903;52.108;9.358;2023-12-20T06:09:02;8.15;;;3.22;;
64986;SDS011;67903;52.108;9.358;2023-12-20T06:11:49;8.18;;;2.90;;
64986;SDS011;67903;52.108;9.358;2023-12-20T06:14:34;5.55;;;3.08;;
64986;SDS011;67903;52.108;9.358;2023-12-20T06:17:20;7.68;;;3.40;;
64986;SDS011;67903;52.108;9.358;2023-12-20T06:20:07;12.80;;;3.60;;
64986;SDS011;67903;52.108;9.358;2023-12-20T06:22:54;8.07;;;3.38;;
64986;SDS011;67903;52.108;9.358;2023-12-20T06:25:40;7.13;;;3.13;;
64986;SDS011;67903;52.108;9.358;2023-12-20T06:28:25;3.70;;;2.42;;
64986;SDS011;67903;52.108;9.358;2023-12-20T06:31:11;7.15;;;3.10;;
64986;SDS011;67903;52.108;9.358;2023-12-20T06:33:56;8.38;;;3.33;;
64986;SDS011;67903;52.108;9.358;2023-12-20T06:36:44;10.55;;;3.40;;
64986;SDS011;67903;52.108;9.358;2023-12-20T06:39:30;8.43;;;3.78;;
64986;SDS011;67903;52.108;9.358;2023-12-20T06:42:15;7.00;;;3.22;;
64986;SDS011;67903;52.108;9.358;2023-12-20T06:45:01;7.40;;;2.30;;
64986;SDS011;67903;52.108;9.358;2023-12-20T06:47:46;6.75;;;2.80;;
64986;SDS011;67903;52.108;9.358;2023-12-20T06:50:32;6.90;;;2.92;;
64986;SDS011;67903;52.108;9.358;2023-12-20T06:53:18;6.32;;;3.38;;
64986;SDS011;67903;52.108;9.358;2023-12-20T06:56:04;9.70;;;3.55;;
64986;SDS011;67903;52.108;9.358;2023-12-20T06:58:49;6.70;;;3.00;;
64986;SDS011;67903;52.108;9.358;2023-12-20T07:01:35;6.40;;;3.17;;
64986;SDS011;67903;52.108;9.358;2023-12-20T07:04:20;10.77;;;3.35;;
64986;SDS011;67903;52.108;9.358;2023-12-20T07:07:07;9.05;;;3.65;;
64986;SDS011;67903;52.108;9.358;2023-12-20T07:09:52;10.45;;;3.67;;
64986;SDS011;67903;52.108;9.358;2023-12-20T07:12:38;7.82;;;3.30;;
64986;SDS011;67903;52.108;9.358;2023-12-20T07:15:24;8.98;;;3.42;;
64986;SDS011;67903;52.108;9.358;2023-12-20T07:18:10;11.77;;;2.90;;
64986;SDS011;67903;52.108;9.358;2023-12-20T07:20:55;10.02;;;3.42;;
64986;SDS011;67903;52.108;9.358;2023-12-20T07:23:40;10.15;;;4.50;;
64986;SDS011;67903;52.108;9.358;2023-12-20T07:26:26;12.65;;;4.70;;
64986;SDS011;67903;52.108;9.358;2023-12-20T07:29:11;9.43;;;3.95;;
64986;SDS011;67903;52.108;9.358;2023-12-20T07:31:57;13.43;;;4.13;;
64986;SDS011;67903;52.108;9.358;2023-12-20T07:34:42;11.30;;;5.18;;
64986;SDS011;67903;52.108;9.358;2023-12-20T07:37:28;13.20;;;3.70;;
64986;SDS011;67903;52.108;9.358;2023-12-20T07:40:14;10.65;;;4.28;;
64986;SDS011;67903;52.108;9.358;2023-12-20T07:43:02;12.63;;;4.28;;
64986;SDS011;67903;52.108;9.358;2023-12-20T07:45:47;12.70;;;4.35;;
64986;SDS011;67903;52.108;9.358;2023-12-20T07:48:34;9.68;;;3.88;;
64986;SDS011;67903;52.108;9.358;2023-12-20T07:51:20;12.57;;;3.85;;
64986;SDS011;67903;52.108;9.358;2023-12-20T07:54:05;9.18;;;5.20;;
64986;SDS011;67903;52.108;9.358;2023-12-20T07:56:52;9.50;;;4.15;;
64986;SDS011;67903;52.108;9.358;2023-12-20T07:59:38;13.23;;;5.55;;
64986;SDS011;67903;52.108;9.358;2023-12-20T08:02:23;10.40;;;4.05;;
64986;SDS011;67903;52.108;9.358;2023-12-20T08:05:09;14.55;;;4.47;;
64986;SDS011;67903;52.108;9.358;2023-12-20T08:07:55;7.70;;;3.50;;
64986;SDS011;67903;52.108;9.358;2023-12-20T08:10:40;12.13;;;4.10;;
64986;SDS011;67903;52.108;9.358;2023-12-20T08:13:26;8.98;;;3.90;;
64986;SDS011;67903;52.108;9.358;2023-12-20T08:16:12;10.13;;;3.60;;
64986;SDS011;67903;52.108;9.358;2023-12-20T08:18:58;11.60;;;4.25;;
64986;SDS011;67903;52.108;9.358;2023-12-20T08:21:44;9.38;;;4.00;;
64986;SDS011;67903;52.108;9.358;2023-12-20T08:24:29;12.23;;;4.13;;
64986;SDS011;67903;52.108;9.358;2023-12-20T08:27:15;6.72;;;3.67;;
64986;SDS011;67903;52.108;9.358;2023-12-20T08:30:00;8.48;;;4.20;;
64986;SDS011;67903;52.108;9.358;2023-12-20T08:32:46;9.68;;;3.53;;
64986;SDS011;67903;52.108;9.358;2023-12-20T08:35:31;8.40;;;4.18;;
64986;SDS011;67903;52.108;9.358;2023-12-20T08:38:17;11.95;;;3.97;;
64986;SDS011;67903;52.108;9.358;2023-12-20T08:41:02;14.45;;;4.32;;
64986;SDS011;67903;52.108;9.358;2023-12-20T08:43:50;10.77;;;4.78;;
64986;SDS011;67903;52.108;9.358;2023-12-20T08:46:35;10.73;;;3.75;;
64986;SDS011;67903;52.108;9.358;2023-12-20T08:49:21;7.03;;;3.78;;
64986;SDS011;67903;52.108;9.358;2023-12-20T08:52:06;9.45;;;3.58;;
64986;SDS011;67903;52.108;9.358;2023-12-20T08:54:52;6.65;;;3.47;;
64986;SDS011;67903;52.108;9.358;2023-12-20T08:57:38;8.98;;;3.75;;
64986;SDS011;67903;52.108;9.358;2023-12-20T09:00:24;9.55;;;3.60;;
64986;SDS011;67903;52.108;9.358;2023-12-20T09:03:12;7.50;;;3.35;;
64986;SDS011;67903;52.108;9.358;2023-12-20T09:05:57;8.30;;;3.88;;
64986;SDS011;67903;52.108;9.358;2023-12-20T09:08:43;10.20;;;4.10;;
64986;SDS011;67903;52.108;9.358;2023-12-20T09:11:29;12.50;;;3.55;;
64986;SDS011;67903;52.108;9.358;2023-12-20T09:14:15;14.98;;;3.45;;
64986;SDS011;67903;52.108;9.358;2023-12-20T09:17:00;8.60;;;3.03;;
64986;SDS011;67903;52.108;9.358;2023-12-20T09:19:46;8.50;;;3.40;;
64986;SDS011;67903;52.108;9.358;2023-12-20T09:22:31;11.70;;;3.83;;
64986;SDS011;67903;52.108;9.358;2023-12-20T09:25:17;13.18;;;3.50;;
64986;SDS011;67903;52.108;9.358;2023-12-20T09:28:03;12.65;;;3.83;;
64986;SDS011;67903;52.108;9.358;2023-12-20T09:30:48;8.23;;;3.33;;
64986;SDS011;67903;52.108;9.358;2023-12-20T09:33:34;7.03;;;2.45;;
64986;SDS011;67903;52.108;9.358;2023-12-20T09:36:19;9.50;;;2.95;;
64986;SDS011;67903;52.108;9.358;2023-12-20T09:39:05;4.53;;;2.33;;
64986;SDS011;67903;52.108;9.358;2023-12-20T09:42:04;12.60;;;4.57;;
64986;SDS011;67903;52.108;9.358;2023-12-20T09:44:50;11.15;;;4.40;;
64986;SDS011;67903;52.108;9.358;2023-12-20T09:47:36;14.90;;;4.30;;
64986;SDS011;67903;52.108;9.358;2023-12-20T09:50:22;11.10;;;4.72;;
64986;SDS011;67903;52.108;9.358;2023-12-20T09:53:09;11.95;;;4.05;;
64986;SDS011;67903;52.108;9.358;2023-12-20T09:55:57;6.07;;;4.25;;
64986;SDS011;67903;52.108;9.358;2023-12-20T09:58:45;9.57;;;5.28;;
64986;SDS011;67903;52.108;9.358;2023-12-20T10:01:30;7.97;;;5.00;;
64986;SDS011;67903;52.108;9.358;2023-12-20T10:04:16;11.57;;;5.18;;
64986;SDS011;67903;52.108;9.358;2023-12-20T10:07:05;8.45;;;3.75;;
64986;SDS011;67903;52.108;9.358;2023-12-20T10:09:51;17.27;;;5.40;;
64986;SDS011;67903;52.108;9.358;2023-12-20T10:12:39;9.63;;;5.60;;
64986;SDS011;67903;52.108;9.358;2023-12-20T10:15:24;10.00;;;5.05;;
64986;SDS011;67903;52.108;9.358;2023-12-20T10:18:12;13.23;;;5.80;;
64986;SDS011;67903;52.108;9.358;2023-12-20T10:20:58;11.45;;;4.75;;
64986;SDS011;67903;52.108;9.358;2023-12-20T10:23:43;12.30;;;5.75;;
64986;SDS011;67903;52.108;9.358;2023-12-20T10:26:29;9.95;;;6.00;;
64986;SDS011;67903;52.108;9.358;2023-12-20T10:29:14;11.38;;;5.47;;
64986;SDS011;67903;52.108;9.358;2023-12-20T10:32:00;17.42;;;7.72;;
64986;SDS011;67903;52.108;9.358;2023-12-20T10:35:06;12.45;;;5.93;;
64986;SDS011;67903;52.108;9.358;2023-12-20T10:37:55;9.30;;;5.57;;
64986;SDS011;67903;52.108;9.358;2023-12-20T10:40:42;9.48;;;5.20;;
64986;SDS011;67903;52.108;9.358;2023-12-20T10:43:29;12.27;;;5.40;;
64986;SDS011;67903;52.108;9.358;2023-12-20T10:46:19;10.30;;;6.20;;
64986;SDS011;67903;52.108;9.358;2023-12-20T10:49:05;8.23;;;5.93;;
64986;SDS011;67903;52.108;9.358;2023-12-20T10:51:52;9.35;;;6.10;;
64986;SDS011;67903;52.108;9.358;2023-12-20T10:54:42;8.15;;;4.18;;
64986;SDS011;67903;52.108;9.358;2023-12-20T10:57:29;10.02;;;5.93;;
64986;SDS011;67903;52.108;9.358;2023-12-20T11:00:15;9.68;;;5.13;;
64986;SDS011;67903;52.108;9.358;2023-12-20T11:03:03;9.25;;;5.05;;
64986;SDS011;67903;52.108;9.358;2023-12-20T11:05:52;7.22;;;5.25;;
64986;SDS011;67903;52.108;9.358;2023-12-20T11:08:50;6.80;;;4.05;;
64986;SDS011;67903;52.108;9.358;2023-12-20T11:11:58;11.05;;;4.13;;
64986;SDS011;67903;52.108;9.358;2023-12-20T11:14:58;7.45;;;4.07;;
64986;SDS011;67903;52.108;9.358;2023-12-20T11:17:55;7.78;;;4.15;;
64986;SDS011;67903;52.108;9.358;2023-12-20T11:20:44;10.45;;;4.40;;
64986;SDS011;67903;52.108;9.358;2023-12-20T11:23:30;11.07;;;4.18;;
64986;SDS011;67903;52.108;9.358;2023-12-20T11:26:22;6.53;;;2.83;;
64986;SDS011;67903;52.108;9.358;2023-12-20T11:29:32;8.23;;;3.33;;
64986;SDS011;67903;52.108;9.358;2023-12-20T11:37:58;8.57;;;3.20;;
64986;SDS011;67903;52.108;9.358;2023-12-20T11:40:44;7.82;;;3.22;;
64986;SDS011;67903;52.108;9.358;2023-12-20T11:43:30;9.27;;;3.28;;
64986;SDS011;67903;52.108;9.358;2023-12-20T11:46:16;6.97;;;2.47;;
64986;SDS011;67903;52.108;9.358;2023-12-20T11:49:02;6.45;;;2.78;;
64986;SDS011;67903;52.108;9.358;2023-12-20T11:51:48;6.88;;;2.70;;
64986;SDS011;67903;52.108;9.358;2023-12-20T11:54:33;5.22;;;1.92;;
64986;SDS011;67903;52.108;9.358;2023-12-20T11:57:19;5.43;;;2.15;;
64986;SDS011;67903;52.108;9.358;2023-12-20T12:00:05;4.18;;;1.52;;
64986;SDS011;67903;52.108;9.358;2023-12-20T12:02:58;4.50;;;2.30;;
64986;SDS011;67903;52.108;9.358;2023-12-20T12:05:46;5.57;;;2.40;;
64986;SDS011;67903;52.108;9.358;2023-12-20T12:08:33;6.13;;;2.53;;
64986;SDS011;67903;52.108;9.358;2023-12-20T12:11:21;3.92;;;2.28;;
64986;SDS011;67903;52.108;9.358;2023-12-20T12:14:07;5.80;;;2.45;;
64986;SDS011;67903;52.108;9.358;2023-12-20T12:16:53;6.60;;;2.65;;
64986;SDS011;67903;52.108;9.358;2023-12-20T12:19:43;4.40;;;1.58;;
64986;SDS011;67903;52.108;9.358;2023-12-20T12:22:29;8.20;;;2.50;;
64986;SDS011;67903;52.108;9.358;2023-12-20T12:25:15;6.03;;;2.47;;
64986;SDS011;67903;52.108;9.358;2023-12-20T12:28:01;9.10;;;2.70;;
64986;SDS011;67903;52.108;9.358;2023-12-20T12:30:59;5.95;;;2.38;;
64986;SDS011;67903;52.108;9.358;2023-12-20T12:33:45;6.57;;;2.67;;
64986;SDS011;67903;52.108;9.358;2023-12-20T12:36:31;6.50;;;2.30;;
64986;SDS011;67903;52.108;9.358;2023-12-20T12:39:17;4.22;;;2.05;;
64986;SDS011;67903;52.108;9.358;2023-12-20T12:42:03;1.88;;;1.10;;
64986;SDS011;67903;52.108;9.358;2023-12-20T12:44:48;3.40;;;1.25;;
64986;SDS011;67903;52.108;9.358;2023-12-20T12:47:34;2.75;;;1.30;;
64986;SDS011;67903;52.108;9.358;2023-12-20T12:50:20;3.17;;;1.40;;
64986;SDS011;67903;52.108;9.358;2023-12-20T12:53:06;5.82;;;1.38;;
64986;SDS011;67903;52.108;9.358;2023-12-20T12:55:52;6.55;;;1.58;;
64986;SDS011;67903;52.108;9.358;2023-12-20T12:58:39;1.90;;;1.02;;
64986;SDS011;67903;52.108;9.358;2023-12-20T13:01:24;2.50;;;1.30;;
64986;SDS011;67903;52.108;9.358;2023-12-20T13:04:10;2.65;;;1.50;;
64986;SDS011;67903;52.108;9.358;2023-12-20T13:06:56;3.72;;;1.60;;
64986;SDS011;67903;52.108;9.358;2023-12-20T13:09:42;3.03;;;1.50;;
64986;SDS011;67903;52.108;9.358;2023-12-20T13:12:28;6.65;;;1.70;;
64986;SDS011;67903;52.108;9.358;2023-12-20T13:15:14;5.82;;;1.88;;
64986;SDS011;67903;52.108;9.358;2023-12-20T13:17:59;5.57;;;1.60;;
64986;SDS011;67903;52.108;9.358;2023-12-20T13:20:45;7.78;;;2.15;;
64986;SDS011;67903;52.108;9.358;2023-12-20T13:23:31;4.28;;;2.10;;
64986;SDS011;67903;52.108;9.358;2023-12-20T13:26:16;3.45;;;1.98;;
64986;SDS011;67903;52.108;9.358;2023-12-20T13:29:02;6.82;;;2.15;;
64986;SDS011;67903;52.108;9.358;2023-12-20T13:31:48;5.60;;;1.30;;
64986;SDS011;67903;52.108;9.358;2023-12-20T13:34:34;5.72;;;1.85;;
64986;SDS011;67903;52.108;9.358;2023-12-20T13:37:20;2.58;;;1.23;;
64986;SDS011;67903;52.108;9.358;2023-12-20T13:40:06;3.97;;;2.17;;
64986;SDS011;67903;52.108;9.358;2023-12-20T13:42:53;3.67;;;1.63;;
64986;SDS011;67903;52.108;9.358;2023-12-20T13:45:39;6.18;;;1.70;;
64986;SDS011;67903;52.108;9.358;2023-12-20T13:48:25;5.28;;;1.90;;
64986;SDS011;67903;52.108;9.358;2023-12-20T13:51:10;4.43;;;1.63;;
64986;SDS011;67903;52.108;9.358;2023-12-20T13:53:56;7.75;;;2.30;;
64986;SDS011;67903;52.108;9.358;2023-12-20T13:56:42;4.55;;;1.42;;
64986;SDS011;67903;52.108;9.358;2023-12-20T13:59:45;3.60;;;1.38;;
64986;SDS011;67903;52.108;9.358;2023-12-20T14:02:31;2.97;;;1.50;;
64986;SDS011;67903;52.108;9.358;2023-12-20T14:05:16;4.85;;;2.20;;
64986;SDS011;67903;52.108;9.358;2023-12-20T14:08:03;6.22;;;1.88;;
64986;SDS011;67903;52.108;9.358;2023-12-20T14:10:49;3.47;;;1.40;;
64986;SDS011;67903;52.108;9.358;2023-12-20T14:13:35;3.63;;;1.80;;
64986;SDS011;67903;52.108;9.358;2023-12-20T14:16:20;4.15;;;1.30;;
64986;SDS011;67903;52.108;9.358;2023-12-20T14:19:06;5.88;;;2.08;;
64986;SDS011;67903;52.108;9.358;2023-12-20T14:21:53;6.18;;;1.23;;
64986;SDS011;67903;52.108;9.358;2023-12-20T14:24:38;8.15;;;2.28;;
64986;SDS011;67903;52.108;9.358;2023-12-20T14:27:24;7.80;;;2.25;;
64986;SDS011;67903;52.108;9.358;2023-12-20T14:30:12;3.28;;;1.40;;
64986;SDS011;67903;52.108;9.358;2023-12-20T14:33:00;4.60;;;1.25;;
64986;SDS011;67903;52.108;9.358;2023-12-20T14:35:45;3.03;;;1.23;;
64986;SDS011;67903;52.108;9.358;2023-12-20T14:38:31;6.63;;;1.48;;
64986;SDS011;67903;52.108;9.358;2023-12-20T14:41:16;5.20;;;1.58;;
64986;SDS011;67903;52.108;9.358;2023-12-20T14:44:04;6.80;;;1.67;;
64986;SDS011;67903;52.108;9.358;2023-12-20T14:46:50;5.47;;;1.75;;
64986;SDS011;67903;52.108;9.358;2023-12-20T14:49:36;3.42;;;1.50;;
64986;SDS011;67903;52.108;9.358;2023-12-20T14:52:23;3.50;;;1.50;;
64986;SDS011;67903;52.108;9.358;2023-12-20T14:55:08;3.03;;;1.63;;
64986;SDS011;67903;52.108;9.358;2023-12-20T14:57:54;4.60;;;1.60;;
64986;SDS011;67903;52.108;9.358;2023-12-20T15:00:39;4.63;;;1.50;;
64986;SDS011;67903;52.108;9.358;2023-12-20T15:03:25;2.00;;;1.20;;
64986;SDS011;67903;52.108;9.358;2023-12-20T15:06:10;4.32;;;1.40;;
64986;SDS011;67903;52.108;9.358;2023-12-20T15:08:57;4.22;;;1.40;;
64986;SDS011;67903;52.108;9.358;2023-12-20T15:11:42;4.93;;;1.40;;
64986;SDS011;67903;52.108;9.358;2023-12-20T15:14:28;4.68;;;1.73;;
64986;SDS011;67903;52.108;9.358;2023-12-20T15:17:13;4.60;;;1.77;;
64986;SDS011;67903;52.108;9.358;2023-12-20T15:19:59;3.33;;;1.58;;
64986;SDS011;67903;52.108;9.358;2023-12-20T15:22:45;3.50;;;1.33;;
64986;SDS011;67903;52.108;9.358;2023-12-20T15:25:30;7.00;;;1.67;;
64986;SDS011;67903;52.108;9.358;2023-12-20T15:28:16;3.45;;;1.73;;
64986;SDS011;67903;52.108;9.358;2023-12-20T15:31:02;6.25;;;1.90;;
64986;SDS011;67903;52.108;9.358;2023-12-20T15:33:49;4.80;;;1.60;;
64986;SDS011;67903;52.108;9.358;2023-12-20T15:36:35;3.17;;;1.50;;
64986;SDS011;67903;52.108;9.358;2023-12-20T15:39:21;4.32;;;1.65;;
64986;SDS011;67903;52.108;9.358;2023-12-20T15:42:06;5.15;;;1.40;;
64986;SDS011;67903;52.108;9.358;2023-12-20T15:44:52;5.53;;;1.80;;
64986;SDS011;67903;52.108;9.358;2023-12-20T15:47:37;4.80;;;1.50;;
64986;SDS011;67903;52.108;9.358;2023-12-20T15:50:22;3.55;;;1.40;;
64986;SDS011;67903;52.108;9.358;2023-12-20T15:53:09;3.08;;;1.52;;
64986;SDS011;67903;52.108;9.358;2023-12-20T15:55:55;7.78;;;1.70;;
64986;SDS011;67903;52.108;9.358;2023-12-20T15:58:40;5.15;;;1.70;;
64986;SDS011;67903;52.108;9.358;2023-12-20T16:01:25;7.80;;;1.55;;
64986;SDS011;67903;52.108;9.358;2023-12-20T16:04:11;7.03;;;1.60;;
64986;SDS011;67903;52.108;9.358;2023-12-20T16:06:57;6.72;;;2.08;;
64986;SDS011;67903;52.108;9.358;2023-12-20T16:09:42;6.65;;;1.85;;
64986;SDS011;67903;52.108;9.358;2023-12-20T16:12:28;3.83;;;2.28;;
64986;SDS011;67903;52.108;9.358;2023-12-20T16:15:14;8.27;;;2.00;;
64986;SDS011;67903;52.108;9.358;2023-12-20T16:17:59;6.00;;;2.25;;
64986;SDS011;67903;52.108;9.358;2023-12-20T16:20:45;8.25;;;2.08;;
64986;SDS011;67903;52.108;9.358;2023-12-20T16:23:31;3.40;;;1.77;;
64986;SDS011;67903;52.108;9.358;2023-12-20T16:26:16;6.20;;;2.30;;
64986;SDS011;67903;52.108;9.358;2023-12-20T16:29:02;5.55;;;2.08;;
64986;SDS011;67903;52.108;9.358;2023-12-20T16:31:47;5.85;;;2.53;;
64986;SDS011;67903;52.108;9.358;2023-12-20T16:34:33;6.95;;;2.17;;
64986;SDS011;67903;52.108;9.358;2023-12-20T16:37:18;5.28;;;1.90;;
64986;SDS011;67903;52.108;9.358;2023-12-20T16:40:04;6.40;;;1.98;;
64986;SDS011;67903;52.108;9.358;2023-12-20T16:42:51;5.35;;;1.90;;
64986;SDS011;67903;52.108;9.358;2023-12-20T16:45:37;5.47;;;2.13;;